createdAt,value
2022-09-02T00:01:46.904Z,55.14
2022-09-02T00:04:23.865Z,55.51
2022-09-02T00:06:53.246Z,55.80
2022-09-02T00:09:23.396Z,55.96
2022-09-02T00:11:51.701Z,55.97
2022-09-02T00:14:24.996Z,55.80
2022-09-02T00:16:53.046Z,54.85
2022-09-02T00:19:22.564Z,54.69
2022-09-02T00:21:50.305Z,55.10
2022-09-02T00:24:33.769Z,55.20
2022-09-02T00:27:25.547Z,55.32
2022-09-02T00:29:53.603Z,55.50
2022-09-02T00:32:20.775Z,55.67
2022-09-02T00:34:49.199Z,55.73
2022-09-02T00:37:29.510Z,55.91
2022-09-02T00:40:03.776Z,55.70
2022-09-02T00:42:32.840Z,55.68
2022-09-02T00:45:00.199Z,56.07
2022-09-02T00:47:27.382Z,56.17
2022-09-02T00:49:55.540Z,56.13
2022-09-02T00:52:41.347Z,57.01
2022-09-02T00:55:18.069Z,57.04
2022-09-02T00:57:49.993Z,57.22
2022-09-02T01:00:34.478Z,57.56
2022-09-02T01:03:08.039Z,57.26
2022-09-02T01:05:43.251Z,57.16
2022-09-02T01:08:13.632Z,57.38
2022-09-02T01:10:43.370Z,57.51
2022-09-02T01:13:15.738Z,57.48
2022-09-02T01:15:47.857Z,57.20
2022-09-02T01:18:19.585Z,57.04
2022-09-02T01:20:47.694Z,57.47
2022-09-02T01:23:17.412Z,56.71
2022-09-02T01:25:47.348Z,56.94
2022-09-02T01:28:17.443Z,57.24
2022-09-02T01:30:49.230Z,57.51
2022-09-02T01:33:18.739Z,56.91
2022-09-02T01:35:46.466Z,57.19
2022-09-02T01:38:15.707Z,57.10
2022-09-02T01:40:43.530Z,57.00
2022-09-02T01:43:14.739Z,57.48
2022-09-02T01:45:44.435Z,57.48
2022-09-02T01:48:14.370Z,57.88
2022-09-02T01:51:01.096Z,57.57
2022-09-02T01:53:30.094Z,57.75
2022-09-02T01:55:58.859Z,57.99
2022-09-02T01:58:28.781Z,57.45
2022-09-02T02:00:58.770Z,58.03
2022-09-02T02:03:26.536Z,57.88
2022-09-02T02:05:57.991Z,58.11
2022-09-02T02:08:27.162Z,58.43
2022-09-02T02:10:54.619Z,58.68
2022-09-02T02:13:23.436Z,58.64
2022-09-02T02:15:51.108Z,58.68
2022-09-02T02:18:18.383Z,58.78
2022-09-02T02:20:46.031Z,59.04
2022-09-02T02:23:14.015Z,58.82
2022-09-02T02:25:41.999Z,58.51
2022-09-02T02:28:09.230Z,59.14
2022-09-02T02:30:37.991Z,58.48
2022-09-02T02:33:07.117Z,58.73
2022-09-02T02:35:34.466Z,58.37
2022-09-02T02:38:21.188Z,58.54
2022-09-02T02:41:07.287Z,58.31
2022-09-02T02:43:36.374Z,57.85
2022-09-02T02:46:23.328Z,58.42
2022-09-02T02:49:26.276Z,58.13
2022-09-02T02:51:54.865Z,58.45
2022-09-02T02:54:39.352Z,58.31
2022-09-02T02:57:13.088Z,58.57
2022-09-02T03:03:14.732Z,58.97
2022-09-02T03:05:47.347Z,59.11
2022-09-02T03:08:30.440Z,59.16
2022-09-02T03:10:59.207Z,58.98
2022-09-02T03:13:46.671Z,59.32
2022-09-02T03:16:47.042Z,58.97
2022-09-02T03:19:56.116Z,59.57
2022-09-02T03:22:53.175Z,59.58
2022-09-02T03:26:40.117Z,59.01
2022-09-02T03:29:25.517Z,59.39
2022-09-02T03:35:58.625Z,59.00
2022-09-02T03:38:32.189Z,59.71
2022-09-02T03:41:16.399Z,59.55
2022-09-02T03:47:13.864Z,59.56
2022-09-02T03:49:43.708Z,60.30
2022-09-02T03:52:28.384Z,60.21
2022-09-02T03:55:35.644Z,60.31
2022-09-02T03:58:08.301Z,59.93
2022-09-02T04:00:38.577Z,60.48
2022-09-02T04:03:06.408Z,60.34
2022-09-02T04:05:33.758Z,59.99
2022-09-02T04:08:02.290Z,60.51
2022-09-02T04:10:30.373Z,60.08
2022-09-02T04:12:58.035Z,60.69
2022-09-02T04:15:25.510Z,60.35
2022-09-02T04:17:54.140Z,60.72
2022-09-02T04:20:21.731Z,60.84
2022-09-02T04:22:49.005Z,61.11
2022-09-02T04:25:16.920Z,61.07
2022-09-02T04:27:47.082Z,60.71
2022-09-02T04:30:16.697Z,60.84
2022-09-02T04:32:46.311Z,60.30
2022-09-02T04:35:14.088Z,60.64
2022-09-02T04:37:42.057Z,60.18
2022-09-02T04:40:10.160Z,60.54
2022-09-02T04:42:38.849Z,60.54
2022-09-02T04:45:09.046Z,60.56
2022-09-02T04:47:39.059Z,58.92
2022-09-02T04:50:08.466Z,56.44
2022-09-02T04:52:37.555Z,54.64
2022-09-02T04:55:07.290Z,52.81
2022-09-02T04:57:35.013Z,50.69
2022-09-02T05:00:08.354Z,48.69
2022-09-02T05:02:36.614Z,47.12
2022-09-02T05:05:04.363Z,44.42
2022-09-02T05:07:38.851Z,43.41
2022-09-02T05:10:07.702Z,43.21
2022-09-02T05:12:40.790Z,42.68
2022-09-02T05:15:11.086Z,40.69
2022-09-02T05:17:39.618Z,39.03
2022-09-02T05:20:09.387Z,38.75
2022-09-02T05:22:38.245Z,37.78
2022-09-02T05:25:09.790Z,37.63
2022-09-02T05:27:38.044Z,35.65
2022-09-02T05:30:07.578Z,35.69
2022-09-02T05:32:38.044Z,34.83
2022-09-02T05:35:07.174Z,33.16
2022-09-02T05:37:36.567Z,32.75
2022-09-02T05:40:06.665Z,34.83
2022-09-02T05:42:37.701Z,34.55
2022-09-02T05:45:06.457Z,33.94
2022-09-02T05:47:37.003Z,35.34
2022-09-02T05:50:05.368Z,34.04
2022-09-02T05:52:36.510Z,33.61
2022-09-02T05:55:04.769Z,33.85
2022-09-02T05:57:35.768Z,34.03
2022-09-02T06:00:08.007Z,35.78
2022-09-02T06:02:42.020Z,33.66
2022-09-02T06:05:14.313Z,32.93
2022-09-02T06:07:47.902Z,33.81
2022-09-02T06:10:19.976Z,35.38
2022-09-02T06:12:47.505Z,34.82
2022-09-02T06:15:15.206Z,34.71
2022-09-02T06:17:43.741Z,34.60
2022-09-02T06:20:12.297Z,33.69
2022-09-02T06:22:42.046Z,34.19
2022-09-02T06:25:09.815Z,34.05
2022-09-02T06:27:38.505Z,34.72
2022-09-02T06:30:06.300Z,34.41
2022-09-02T06:32:34.344Z,35.50
2022-09-02T06:35:05.361Z,36.59
2022-09-02T06:37:35.386Z,37.96
2022-09-02T06:40:04.273Z,37.18
2022-09-02T06:42:32.272Z,37.11
2022-09-02T06:45:26.574Z,36.43
2022-09-02T06:47:55.958Z,36.35
2022-09-02T06:50:23.402Z,37.88
2022-09-02T06:52:51.223Z,39.47
2022-09-02T06:55:19.030Z,40.51
2022-09-02T06:57:46.769Z,41.68
2022-09-02T07:00:17.028Z,40.82
2022-09-02T07:03:04.297Z,40.04
2022-09-02T07:05:33.755Z,40.54
2022-09-02T07:08:01.356Z,39.36
2022-09-02T07:10:28.739Z,40.20
2022-09-02T07:12:57.402Z,39.99
2022-09-02T07:15:24.752Z,39.32
2022-09-02T07:17:54.239Z,38.64
2022-09-02T07:20:33.922Z,39.75
2022-09-02T07:23:03.164Z,40.14
2022-09-02T07:25:34.144Z,38.97
2022-09-02T07:28:01.462Z,38.58
2022-09-02T07:30:32.657Z,37.80
2022-09-02T07:33:14.325Z,39.12
2022-09-02T07:35:44.481Z,38.73
2022-09-02T07:38:15.317Z,37.14
2022-09-02T07:40:44.227Z,38.61
2022-09-02T07:43:12.252Z,37.62
2022-09-02T07:45:44.081Z,36.75
2022-09-02T07:48:16.167Z,36.60
2022-09-02T07:50:46.192Z,37.07
2022-09-02T07:53:16.926Z,35.60
2022-09-02T07:55:46.311Z,34.88
2022-09-02T07:58:16.062Z,35.70
2022-09-02T08:00:44.402Z,36.02
2022-09-02T08:03:12.282Z,36.20
2022-09-02T08:05:47.386Z,37.42
2022-09-02T08:08:16.468Z,38.61
2022-09-02T08:10:43.880Z,37.20
2022-09-02T08:13:11.335Z,38.00
2022-09-02T08:15:39.304Z,37.57
2022-09-02T08:18:07.479Z,38.91
2022-09-02T08:20:36.521Z,39.00
2022-09-02T08:23:11.767Z,37.60
2022-09-02T08:25:46.113Z,38.40
2022-09-02T08:28:13.425Z,40.50
2022-09-02T08:30:40.645Z,41.37
2022-09-02T08:33:07.911Z,42.37
2022-09-02T08:35:35.250Z,43.15
2022-09-02T08:38:02.555Z,44.11
2022-09-02T08:40:37.826Z,45.28
2022-09-02T08:43:30.440Z,46.59
2022-09-02T08:46:04.494Z,47.40
2022-09-02T08:48:54.547Z,47.52
2022-09-02T08:51:37.091Z,47.88
2022-09-02T08:54:20.151Z,49.09
2022-09-02T08:56:50.249Z,49.98
2022-09-02T08:59:21.804Z,50.59
2022-09-02T09:01:57.021Z,50.91
2022-09-02T09:05:08.821Z,51.10
2022-09-02T09:07:48.172Z,51.88
2022-09-02T09:10:31.073Z,50.79
2022-09-02T09:13:04.079Z,50.27
2022-09-02T09:15:57.005Z,51.00
2022-09-02T09:18:39.354Z,51.13
2022-09-02T09:21:11.379Z,49.89
2022-09-02T09:23:40.763Z,50.21
2022-09-02T09:26:19.313Z,50.97
2022-09-02T09:28:49.213Z,51.47
2022-09-02T09:31:19.431Z,51.98
2022-09-02T09:34:03.616Z,50.98
2022-09-02T09:36:53.753Z,50.61
2022-09-02T09:39:22.681Z,51.06
2022-09-02T09:41:51.349Z,50.86
2022-09-02T09:44:30.921Z,50.00
2022-09-02T09:47:13.553Z,50.96
2022-09-02T09:49:43.328Z,51.16
2022-09-02T09:52:11.069Z,52.11
2022-09-02T09:54:38.381Z,51.27
2022-09-02T09:57:21.565Z,51.30
2022-09-02T09:59:57.390Z,50.14
2022-09-02T10:02:27.346Z,51.05
2022-09-02T10:05:09.911Z,52.36
2022-09-02T10:07:40.224Z,51.20
2022-09-02T10:10:20.314Z,51.14
2022-09-02T10:12:49.779Z,50.23
2022-09-02T10:15:27.268Z,50.74
2022-09-02T10:18:32.096Z,49.33
2022-09-02T10:21:32.138Z,51.13
2022-09-02T10:24:45.387Z,51.38
2022-09-02T10:27:17.572Z,50.18
2022-09-02T10:29:52.608Z,50.38
2022-09-02T10:32:31.571Z,50.89
2022-09-02T10:35:17.271Z,50.87
2022-09-02T10:37:59.350Z,52.34
2022-09-02T10:40:50.901Z,52.91
2022-09-02T10:43:33.051Z,52.30
2022-09-02T10:46:01.684Z,52.84
2022-09-02T10:48:44.347Z,52.15
2022-09-02T10:51:26.512Z,52.66
2022-09-02T10:54:25.130Z,52.76
2022-09-02T10:57:04.526Z,53.66
2022-09-02T10:59:35.867Z,54.65
2022-09-02T11:02:28.678Z,52.99
2022-09-02T11:05:09.496Z,54.53
2022-09-02T11:07:43.599Z,53.74
2022-09-02T11:10:26.969Z,55.96
2022-09-02T11:13:05.548Z,57.17
2022-09-02T11:15:58.047Z,56.89
2022-09-02T11:19:03.269Z,57.56
2022-09-02T11:21:48.141Z,59.19
2022-09-02T11:24:22.375Z,60.25
2022-09-02T11:27:25.752Z,59.04
2022-09-02T11:30:13.997Z,58.23
2022-09-02T11:32:50.821Z,58.92
2022-09-02T11:35:28.289Z,59.22
2022-09-02T11:37:58.336Z,57.91
2022-09-02T11:40:34.720Z,58.35
2022-09-02T11:43:13.014Z,58.45
2022-09-02T11:45:53.686Z,59.70
2022-09-02T11:48:41.086Z,59.79
2022-09-02T11:51:54.970Z,59.82
2022-09-02T11:54:24.331Z,58.81
2022-09-02T11:56:59.332Z,58.85
2022-09-02T11:59:50.997Z,60.47
2022-09-02T12:02:39.413Z,61.01
2022-09-02T12:05:32.253Z,61.47
2022-09-02T12:08:00.989Z,59.80
2022-09-02T12:10:43.824Z,59.29
2022-09-02T12:13:29.609Z,60.19
2022-09-02T12:16:24.020Z,59.22
2022-09-02T12:19:00.956Z,58.89
2022-09-02T12:21:30.444Z,59.10
2022-09-02T12:23:57.744Z,58.51
2022-09-02T12:26:53.634Z,59.21
2022-09-02T12:29:22.340Z,60.14
2022-09-02T12:31:53.934Z,60.45
2022-09-02T12:34:21.078Z,61.57
2022-09-02T12:36:57.974Z,60.32
2022-09-02T12:39:25.872Z,59.59
2022-09-02T12:42:08.031Z,59.55
2022-09-02T12:45:01.338Z,58.67
2022-09-02T12:47:32.702Z,59.53
2022-09-02T12:50:10.901Z,58.97
2022-09-02T12:52:47.390Z,58.62
2022-09-02T12:55:23.248Z,58.75
2022-09-02T12:57:55.059Z,58.57
2022-09-02T13:00:31.511Z,59.21
2022-09-02T13:03:13.863Z,58.74
2022-09-02T13:06:01.458Z,57.71
2022-09-02T13:08:56.143Z,58.26
2022-09-02T13:11:50.528Z,57.83
2022-09-02T13:14:33.735Z,58.84
2022-09-02T13:17:25.888Z,58.46
2022-09-02T13:20:14.289Z,57.56
2022-09-02T13:22:56.811Z,56.14
2022-09-02T13:26:09.587Z,56.26
2022-09-02T13:29:10.228Z,58.13
2022-09-02T13:31:37.993Z,57.83
2022-09-02T13:34:14.052Z,57.77
2022-09-02T13:36:46.625Z,59.25
2022-09-02T13:39:28.209Z,58.69
2022-09-02T13:41:57.325Z,57.85
2022-09-02T13:44:32.139Z,57.57
2022-09-02T13:47:13.341Z,57.94
2022-09-02T13:49:42.288Z,58.01
2022-09-02T13:52:17.547Z,57.69
2022-09-02T13:54:53.389Z,57.64
2022-09-02T13:57:25.972Z,58.72
2022-09-02T13:59:57.006Z,57.63
2022-09-02T14:02:36.299Z,58.84
2022-09-02T14:05:17.383Z,58.90
2022-09-02T14:07:50.795Z,59.09
2022-09-02T14:10:21.033Z,58.94
2022-09-02T14:12:50.144Z,59.13
2022-09-02T14:15:23.948Z,60.63
2022-09-02T14:18:18.121Z,58.01
2022-09-02T14:21:15.696Z,60.02
2022-09-02T14:23:51.282Z,60.63
2022-09-02T14:26:46.208Z,61.46
2022-09-02T14:29:16.914Z,61.96
2022-09-02T14:31:45.936Z,60.77
2022-09-02T14:34:41.850Z,60.17
2022-09-02T14:37:28.787Z,59.99
2022-09-02T14:40:12.917Z,59.98
2022-09-02T14:42:48.515Z,61.06
2022-09-02T14:45:27.133Z,60.26
2022-09-02T14:47:55.712Z,60.48
2022-09-02T14:50:31.945Z,60.80
2022-09-02T14:53:04.036Z,61.02
2022-09-02T14:55:48.434Z,60.91
2022-09-02T14:58:18.600Z,61.64
2022-09-02T15:00:48.804Z,61.10
2022-09-02T15:03:16.874Z,61.43
2022-09-02T15:05:44.516Z,60.74
2022-09-02T15:08:12.765Z,60.39
2022-09-02T15:10:41.025Z,60.91
2022-09-02T15:13:12.610Z,60.83
2022-09-02T15:15:41.062Z,61.44
2022-09-02T15:18:09.207Z,60.91
2022-09-02T15:20:36.672Z,60.51
2022-09-02T15:23:03.923Z,60.28
2022-09-02T15:25:31.273Z,59.92
2022-09-02T15:27:58.434Z,59.75
2022-09-02T15:30:28.097Z,61.11
2022-09-02T15:32:55.195Z,60.37
2022-09-02T15:35:22.442Z,61.41
2022-09-02T15:37:52.501Z,60.30
2022-09-02T15:40:19.938Z,60.92
2022-09-02T15:42:47.103Z,62.23
2022-09-02T15:45:14.914Z,62.13
2022-09-02T15:47:42.426Z,62.84
2022-09-02T15:50:09.863Z,63.57
2022-09-02T15:52:37.846Z,62.99
2022-09-02T15:55:05.748Z,61.96
2022-09-02T15:57:33.031Z,62.94
2022-09-02T16:00:00.473Z,63.66
2022-09-02T16:02:27.751Z,63.51
2022-09-02T16:04:55.580Z,62.62
2022-09-02T16:07:22.786Z,61.61
2022-09-02T16:09:50.673Z,61.12
2022-09-02T16:12:18.180Z,61.46
2022-09-02T16:14:49.457Z,60.69
2022-09-02T16:17:17.044Z,62.08
2022-09-02T16:19:44.169Z,62.55
2022-09-02T16:22:11.423Z,63.21
2022-09-02T16:24:38.580Z,62.88
2022-09-02T16:27:06.106Z,64.40
2022-09-02T16:29:37.210Z,63.24
2022-09-02T16:32:24.679Z,63.93
2022-09-02T16:34:55.894Z,63.42
2022-09-02T16:37:23.117Z,63.11
2022-09-02T16:39:50.330Z,63.89
2022-09-02T16:42:17.575Z,62.74
2022-09-02T16:44:46.332Z,63.18
2022-09-02T16:47:19.380Z,63.29
2022-09-02T16:49:47.072Z,63.37
2022-09-02T16:52:17.536Z,63.89
2022-09-02T16:54:44.861Z,64.71
2022-09-02T16:57:12.265Z,64.21
2022-09-02T16:59:39.605Z,63.55
2022-09-02T17:02:07.370Z,64.44
2022-09-02T17:04:34.894Z,64.72
2022-09-02T17:07:02.178Z,64.99
2022-09-02T17:09:29.313Z,65.08
2022-09-02T17:11:56.588Z,65.38
2022-09-02T17:14:23.933Z,65.33
2022-09-02T17:16:51.697Z,66.19
2022-09-02T17:19:26.164Z,65.79
2022-09-02T17:21:57.293Z,66.53
2022-09-02T17:24:28.419Z,66.01
2022-09-02T17:26:56.439Z,65.46
2022-09-02T17:32:13.324Z,64.94
2022-09-02T17:34:43.644Z,65.67
2022-09-02T17:37:11.227Z,66.15
2022-09-02T17:39:38.580Z,67.04
2022-09-02T17:42:06.451Z,66.70
2022-09-02T17:44:37.704Z,66.75
2022-09-02T17:47:14.471Z,67.19
2022-09-02T17:49:44.805Z,67.17
2022-09-02T17:52:22.986Z,67.18
2022-09-02T17:54:52.912Z,68.14
2022-09-02T17:57:42.750Z,67.99
2022-09-02T18:00:16.954Z,67.90
2022-09-02T18:03:02.839Z,67.67
2022-09-02T18:05:30.142Z,68.07
2022-09-02T18:08:03.539Z,67.82
2022-09-02T18:10:34.602Z,68.66
2022-09-02T18:13:13.559Z,68.33
2022-09-02T18:16:08.710Z,68.83
2022-09-02T18:18:40.512Z,69.32
2022-09-02T18:21:18.043Z,69.75
2022-09-02T18:23:57.297Z,70.13
2022-09-02T18:26:54.903Z,70.13
2022-09-02T18:29:37.428Z,70.20
2022-09-02T18:32:19.693Z,71.03
2022-09-02T18:35:10.971Z,71.39
2022-09-02T18:38:08.210Z,72.38
2022-09-02T18:40:52.189Z,71.17
2022-09-02T18:43:40.921Z,71.25
2022-09-02T18:46:11.595Z,71.85
2022-09-02T18:48:39.747Z,71.85
2022-09-02T18:51:29.184Z,71.61
2022-09-02T18:54:06.619Z,71.49
2022-09-02T18:56:36.962Z,71.17
2022-09-02T18:59:10.991Z,70.92
2022-09-02T19:01:46.304Z,71.13
2022-09-02T19:04:15.072Z,71.33
2022-09-02T19:06:42.946Z,71.51
2022-09-02T19:09:16.288Z,71.47
2022-09-02T19:11:43.490Z,71.23
2022-09-02T19:14:31.485Z,71.33
2022-09-02T19:16:59.217Z,71.33
2022-09-02T19:19:29.776Z,70.95
2022-09-02T19:22:05.015Z,71.28
2022-09-02T19:24:37.567Z,71.38
2022-09-02T19:27:12.581Z,71.44
2022-09-02T19:29:46.416Z,71.31
2022-09-02T19:32:14.917Z,71.08
2022-09-02T19:34:45.155Z,71.45
2022-09-02T19:37:14.729Z,71.76
2022-09-02T19:39:43.403Z,71.77
2022-09-02T19:42:11.191Z,71.89
2022-09-02T19:44:41.068Z,71.85
2022-09-02T19:48:02.707Z,72.11
2022-09-02T19:49:57.816Z,71.74
2022-09-02T19:52:25.766Z,72.42
2022-09-02T19:54:54.693Z,72.12
2022-09-02T19:57:23.083Z,72.38
2022-09-02T19:59:52.111Z,71.70
2022-09-02T20:02:22.310Z,71.32
2022-09-02T20:04:51.214Z,71.60
2022-09-02T20:07:18.575Z,71.36
2022-09-02T20:09:46.166Z,71.18
2022-09-02T20:12:16.218Z,70.91
2022-09-02T20:14:46.363Z,71.14
2022-09-02T20:17:20.057Z,70.83
2022-09-02T20:19:55.650Z,71.08
2022-09-02T20:22:23.725Z,71.49
2022-09-02T20:24:57.285Z,71.44
2022-09-02T20:27:43.546Z,71.38
2022-09-02T20:30:19.298Z,71.73
2022-09-02T20:33:15.353Z,71.48
2022-09-02T20:36:23.705Z,72.08
2022-09-02T20:39:16.804Z,72.23
2022-09-02T20:42:12.254Z,72.09
2022-09-02T20:45:07.769Z,71.23
2022-09-02T20:47:49.634Z,71.44
2022-09-02T20:50:31.705Z,71.70
2022-09-02T20:53:23.008Z,71.75
2022-09-02T20:56:28.516Z,72.06
2022-09-02T20:58:55.819Z,71.32
2022-09-02T21:01:36.440Z,71.65
2022-09-02T21:04:30.354Z,71.46
2022-09-02T21:07:01.675Z,71.83
2022-09-02T21:09:55.167Z,72.24
2022-09-02T21:12:36.665Z,71.75
2022-09-02T21:15:27.944Z,71.93
2022-09-02T21:18:02.754Z,71.69
2022-09-02T21:20:53.660Z,71.31
2022-09-02T21:23:39.024Z,71.41
2022-09-02T21:26:19.001Z,71.60
2022-09-02T21:28:58.114Z,71.86
2022-09-02T21:31:25.229Z,71.68
2022-09-02T21:33:55.142Z,71.38
2022-09-02T21:36:32.614Z,71.93
2022-09-02T21:39:08.251Z,71.82
2022-09-02T21:42:00.382Z,71.85
2022-09-02T21:45:04.635Z,72.13
2022-09-02T21:47:36.393Z,71.90
2022-09-02T21:50:07.184Z,71.83
2022-09-02T21:52:57.137Z,72.46
2022-09-02T21:55:48.654Z,72.00
2022-09-02T21:58:18.938Z,71.81
2022-09-02T22:00:57.746Z,72.12
2022-09-02T22:03:41.743Z,72.03
2022-09-02T22:06:42.667Z,72.20
2022-09-02T22:09:24.162Z,72.42
2022-09-02T22:12:14.892Z,72.44
2022-09-02T22:15:03.347Z,72.22
2022-09-02T22:17:51.536Z,72.57
2022-09-02T22:20:23.405Z,72.78
2022-09-02T22:22:54.795Z,72.67
2022-09-02T22:25:23.475Z,72.79
2022-09-02T22:28:14.709Z,72.57
2022-09-02T22:30:48.202Z,72.59
2022-09-02T22:33:19.837Z,72.49
2022-09-02T22:35:50.690Z,72.83
2022-09-02T22:38:27.893Z,72.58
2022-09-02T22:41:04.288Z,72.46
2022-09-02T22:43:41.836Z,72.53
2022-09-02T22:47:15.345Z,72.13
2022-09-02T22:50:08.781Z,72.23
2022-09-02T22:52:55.021Z,72.36
2022-09-02T22:55:42.990Z,72.32
2022-09-02T22:58:41.504Z,72.25
2022-09-02T23:01:16.327Z,72.61
2022-09-02T23:03:59.763Z,72.53
2022-09-02T23:06:29.466Z,72.39
2022-09-02T23:08:59.068Z,72.33
2022-09-02T23:11:33.019Z,72.37
2022-09-02T23:14:30.315Z,72.62
2022-09-02T23:17:23.603Z,72.11
2022-09-02T23:20:09.186Z,71.37
2022-09-02T23:22:54.548Z,71.79
2022-09-02T23:25:40.475Z,71.33
2022-09-02T23:28:17.424Z,71.22
2022-09-02T23:30:53.846Z,71.47
2022-09-02T23:33:25.901Z,71.08
2022-09-02T23:36:19.477Z,70.79
2022-09-02T23:39:04.856Z,71.02
2022-09-02T23:41:32.259Z,71.15
2022-09-02T23:43:59.766Z,70.89
2022-09-02T23:46:33.882Z,70.88
2022-09-02T23:49:22.432Z,70.93
2022-09-02T23:51:58.505Z,70.71
2022-09-02T23:54:35.099Z,70.85
2022-09-02T23:57:05.325Z,71.11
2022-09-02T23:59:41.565Z,71.15
